Track Гуляев Виталий

Time Latitude Longitude Accuracy (66% radius in meters) Altitude (meters) Speed (km/hour) Bearing (degrees) Battery (%) GPS flag
08:40:25 60.370983 29.556375 16 77 0 23.70615196228 60 1 delete
08:40:12 60.370945 29.556330 8 87 0.35320430994034 174.15869140625 60 1 delete
08:40:11 60.370948 29.556332 12 86 0 195.52537536621 60 1 delete
08:40:00 60.370980 29.556317 6 86 0.04303090646863 55.587768554688 60 1 delete
08:39:47 60.370991 29.556350 8 72 0 161.25387573242 60 1 delete
08:39:41 60.370991 29.556370 8 76 0.11644022166729 79.43635559082 60 1 delete
08:39:35 60.370968 29.556333 6 76 0 179.78300476074 60 1 delete
08:39:22 60.370950 29.556289 6 81 0 353.21328735352 60 1 delete
08:39:09 60.370949 29.556264 6 74 0 251.75149536133 60 1 delete
08:39:01 60.370959 29.556292 8 71 0 120.70015716553 60 1 delete
08:38:57 60.370996 29.556328 8 78 0 120.70015716553 60 1 delete
08:38:44 60.371004 29.556328 16 77 0 14.710453033447 60 1 delete
08:38:39 60.371002 29.556338 8 68 0.19487802684307 12.718876838684 60 1 delete
08:38:31 60.370959 29.556321 6 69 0 155.57835388184 60 1 delete
08:38:22 60.370951 29.556314 8 76 0 155.57835388184 60 1 delete
08:38:18 60.370952 29.556341 12 77 0.38217842578888 155.57835388184 60 1 delete
08:38:06 60.370960 29.556399 12 73 0 34.220458984375 60 1 delete
08:37:59 60.370945 29.556404 12 68 0 212.33787536621 60 1 delete
08:37:54 60.370915 29.556398 12 63 0 212.33787536621 60 1 delete
08:37:41 60.370919 29.556406 8 62 0 212.33787536621 60 1 delete
08:37:29 60.370900 29.556384 6 66 0 185.76837158203 60 1 delete
08:37:16 60.370908 29.556341 6 55 0 337.89038085938 60 1 delete
08:37:13 60.370913 29.556339 12 56 0 33.068737030029 60 1 delete
08:37:03 60.370914 29.556288 8 70 0 170.57176208496 60 1 delete
08:36:50 60.370913 29.556258 8 63 0 204.89331054688 67 1 delete
08:36:38 60.370944 29.556271 8 76 0 204.89331054688 67 1 delete
08:36:27 60.370968 29.556349 8 84 0 248.7813873291 67 1 delete
08:36:26 60.370968 29.556363 16 82 0.40373796224594 248.7813873291 67 1 delete
08:36:14 60.370988 29.556428 8 67 0.045755743980408 315.07577514648 67 1 delete
08:36:04 60.370991 29.556438 8 65 0 5.8992853164673 67 1 delete
08:36:01 60.370983 29.556410 8 68 0 36.666725158691 67 1 delete
08:35:48 60.371001 29.556331 12 82 0 191.42872619629 67 1 delete
08:35:39 60.371006 29.556349 16 82 0 235.15832519531 67 1 delete
08:35:35 60.370995 29.556338 8 84 0 189.88716125488 67 1 delete
08:35:23 60.370975 29.556314 8 87 0 189.88716125488 67 1 delete
08:35:11 60.370986 29.556293 8 68 0 212.61738586426 67 1 delete
08:34:59 60.370995 29.556254 8 77 0 57.255573272705 67 1 delete
08:34:49 60.370993 29.556259 8 77 0.077121540904045 217.27355957031 67 1 delete
08:34:46 60.371001 29.556302 8 76 0.28944808244705 228.3441619873 67 1 delete
08:34:34 60.371005 29.556311 12 90 0 5.2872819900513 67 1 delete
08:34:22 60.371012 29.556350 8 88 0 5.2872819900513 67 1 delete
08:34:14 60.370975 29.556346 12 83 0.38012018799782 47.64119720459 67 1 delete
08:34:09 60.370949 29.556279 6 76 0 43.107078552246 67 1 delete
08:33:57 60.370936 29.556244 8 72 0 315.43173217773 67 1 delete
08:33:46 60.370947 29.556251 8 80 0.042942550033331 199.2509765625 67 1 delete
08:33:44 60.370963 29.556262 8 86 0 193.11143493652 67 1 delete
08:33:31 60.370986 29.556240 8 85 0 131.65838623047 67 1 delete
08:33:23 60.370989 29.556204 8 98 0 130.08598327637 67 1 delete
08:33:19 60.370974 29.556205 6 95 0 130.08598327637 67 1 delete
08:33:07 60.370952 29.556260 8 73 0 162.14080810547 67 1 delete